• Join FlightAware (Why Join?)
  • Login
  • US Flag 
09:24PM EDT


 

Airport Tracker/Info


-or-


 

Live Flight TrackerFlight Track Log ✈ GGN7282 ✈ 08-Jul-2013 ✈ CYYZ - KALB

Flight Track Log - Related Links

Times and Time Zones

All times are in EDT time to prevent confusion due to time zone crossing. See the GGN7282 flight status page for this flight to view local times or setup timezone preferences in your user account.

Time Position Orientation Groundspeed Altitude Reporting Facility
EDT Latitude Longitude Course Direction KTS MPH feet Rate Location/Type
04:26PM 43.6833 -79.6167 360° North 10 12 500  Level Toronto Center
04:28PM 43.6833 -79.6167 36° Northeast 20 23 500  Level Toronto Center
04:29PM 43.6833 -79.6167 36° Northeast 10 12 500 240 Level Toronto Center
04:32PM 43.6500 -79.6500 216° Southwest 130 150 1,500 600 Climbing Toronto Center
04:33PM 43.6167 -79.6833 216° Southwest 160 184 2,900 1,140 Climbing Toronto Center
04:34PM 43.5667 -79.6500 154° Southeast 200 230 3,800 840 Climbing Toronto Center
04:35PM 43.5167 -79.6167 154° Southeast 220 253 4,600 600 Climbing Toronto Center
04:36PM 43.5000 -79.5167 103° East 240 276 5,100 240 Climbing Toronto Center
04:37PM 43.5000 -79.4000 90° East 260 299 5,100 300 Level Toronto Center
04:38PM 43.5000 -79.3167 90° East 260 299 5,800 600 Climbing Toronto Center
04:39PM 43.5000 -79.2167 90° East 250 288 6,300 540 Climbing Toronto Center
04:40PM 43.5000 -79.1333 90° East 250 288 6,900 600 Climbing Toronto Center
04:41PM 43.4667 -79.0333 115° Southeast 250 288 7,600 600 Climbing Toronto Center
04:42PM 43.4333 -78.9667 125° Southeast 240 276 8,200 600 Climbing Toronto Center
04:43PM 43.4000 -78.8833 119° Southeast 250 288 8,900 360 Climbing Toronto Center
04:44PM 43.3667 -78.7833 115° Southeast 250 288 9,000  Climbing Toronto Center
04:45PM 43.3333 -78.7167 124° Southeast 260 299 9,000  Level Toronto Center
04:46PM 43.2833 -78.6333 129° Southeast 260 299 9,000  Level Toronto Center
04:47PM 43.2500 -78.5333 115° Southeast 260 299 9,000  Level Toronto Center
04:48PM 43.1833 -78.4667 144° Southeast 260 299 9,000  Level Toronto Center
04:49PM 43.1833 -78.3833 90° East 260 299 9,000  Level Toronto Center
04:49PM 43.1908 -78.3422 76° East 259 298 9,000  Level Cleveland Center
04:50PM 43.1828 -78.2428 96° East 260 299 9,000  Level Cleveland Center
04:51PM 43.1725 -78.1494 99° East 259 298 9,000  Level Cleveland Center
04:52PM 43.1578 -78.0475 101° East 260 299 9,000  Level Cleveland Center
04:53PM 43.1472 -77.9511 99° East 259 298 9,000  Level Cleveland Center
04:54PM 43.1367 -77.8519 98° East 259 298 9,000  Level Cleveland Center
04:55PM 43.1408 -77.7636 86° East 255 293 9,000  Level Cleveland Center
04:56PM 43.1531 -77.6719 80° East 261 300 9,000  Level Cleveland Center
04:57PM 43.1547 -77.5694 89° East 259 298 9,000  Level Cleveland Center
04:58PM 43.1561 -77.4725 89° East 258 297 9,000  Level Cleveland Center
04:59PM 43.1578 -77.3728 89° East 259 298 9,000  Level Cleveland Center
05:00PM 43.1569 -77.2761 91° East 257 296 9,000  Level Cleveland Center
05:02PM 43.1575 -77.0519 90° East 261 300 9,000  Level Boston Center
05:03PM 43.1594 -76.9522 88° East 261 300 9,000  Level Boston Center
05:05PM 43.1592 -76.8525 90° East 254 292 9,000  Level Boston Center
05:06PM 43.1608 -76.7558 89° East 253 291 9,000  Level Boston Center
05:07PM 43.1628 -76.6478 89° East 259 298 9,000  Level Boston Center
05:08PM 43.1600 -76.5508 92° East 262 302 9,000  Level Boston Center
05:09PM 43.1617 -76.4483 89° East 262 302 9,000  Level Boston Center
05:09PM 43.1583 -76.3600 93° East 262 302 9,000  Level Boston Center
05:10PM 43.1597 -76.2603 89° East 263 303 9,000  Level Boston Center
05:11PM 43.1544 -76.1633 94° East 260 299 9,000  Level Boston Center
05:12PM 43.1447 -76.0772 99° East 259 298 9,000  Level Boston Center
05:13PM 43.1292 -75.9767 102° East 261 300 9,000 -60 Level Boston Center
05:14PM 43.1178 -75.8708 98° East 261 300 8,900  Descending Boston Center
05:15PM 43.1061 -75.7761 100° East 261 300 9,000  Climbing Boston Center
05:16PM 43.0922 -75.6789 101° East 262 302 9,000 -60 Level Boston Center
05:17PM 43.0839 -75.6014 98° East 261 300 8,900 -60 Descending Boston Center
05:18PM 43.0681 -75.4983 102° East 262 302 8,900  Level Boston Center
05:19PM 43.0561 -75.3925 99° East 264 304 8,900  Level Boston Center
05:20PM 43.0419 -75.2925 101° East 264 304 8,900  Level Boston Center
05:21PM 43.0297 -75.1953 100° East 263 303 8,900  Level Boston Center
05:22PM 43.0131 -75.1064 104° East 262 302 8,900  Level Boston Center
05:23PM 42.9944 -75.0092 105° East 262 302 8,900 -300 Level Boston Center
05:24PM 42.9781 -74.9119 103° East 267 307 8,400 -600 Descending Boston Center
05:25PM 42.9572 -74.8147 106° East 276 318 7,800 -720 Descending Boston Center
05:26PM 42.9400 -74.7403 108° East 278 320 7,300 -720 Descending Boston Center
05:27PM 42.9169 -74.6403 107° East 278 320 6,700 -660 Descending Boston Center
05:28PM 42.9000 -74.5375 103° East 270 311 6,000 -660 Descending Boston Center
05:29PM 42.8786 -74.4461 108° East 259 298 5,400 -600 Descending Boston Center
05:30PM 42.8617 -74.3550 104° East 258 297 4,800 -600 Descending Boston Center
05:31PM 42.8422 -74.2608 106° East 258 297 4,200 -420 Descending Boston Center
05:32PM 42.8189 -74.1583 107° East 256 295 4,000 -120 Descending Boston Center
05:33PM 42.7717 -74.1003 138° Southeast 242 278 4,000  Level Boston Center
05:34PM 42.7117 -74.0706 160° South 232 267 4,000 -60 Level Boston Center
05:35PM 42.6561 -74.0267 150° Southeast 228 262 3,900 -300 Descending Boston Center
05:36PM 42.5983 -73.9800 149° Southeast 240 276 3,500 -240 Descending Boston Center
05:37PM 42.5578 -73.9058 127° Southeast 237 273 3,500 -480 Level Boston Center
05:38PM 42.5547 -73.8183 93° East 233 268 2,600 -900 Descending Boston Center